createdAt,value
2022-11-13T00:00:11.000Z,2.799999952316284
2022-11-13T00:00:25.000Z,2.799999952316284
2022-11-13T00:00:40.000Z,2.700000047683716
2022-11-13T00:00:55.000Z,2.700000047683716
2022-11-13T00:01:10.000Z,2.700000047683716
2022-11-13T00:01:25.000Z,2.700000047683716
2022-11-13T00:01:40.000Z,2.700000047683716
2022-11-13T00:01:55.000Z,2.700000047683716
2022-11-13T00:02:10.000Z,2.700000047683716
2022-11-13T00:02:25.000Z,2.700000047683716
2022-11-13T00:02:40.000Z,2.700000047683716
2022-11-13T00:02:55.000Z,2.5999999046325684
2022-11-13T00:03:10.000Z,2.5999999046325684
2022-11-13T00:03:25.000Z,2.5999999046325684
2022-11-13T00:03:40.000Z,2.700000047683716
2022-11-13T00:03:55.000Z,2.5999999046325684
2022-11-13T00:04:10.000Z,2.5999999046325684
2022-11-13T00:04:25.000Z,2.5999999046325684
2022-11-13T00:04:40.000Z,2.5999999046325684
2022-11-13T00:04:56.000Z,2.5999999046325684
2022-11-13T00:05:11.000Z,2.5999999046325684
2022-11-13T00:05:26.000Z,2.5999999046325684
2022-11-13T00:05:41.000Z,2.5999999046325684
2022-11-13T00:05:56.000Z,2.5999999046325684
2022-11-13T00:06:11.000Z,2.5999999046325684
2022-11-13T00:06:26.000Z,2.5999999046325684
2022-11-13T00:06:41.000Z,2.700000047683716
2022-11-13T00:06:56.000Z,2.700000047683716
2022-11-13T00:07:11.000Z,2.700000047683716
2022-11-13T00:07:26.000Z,2.700000047683716
2022-11-13T00:07:40.000Z,2.700000047683716
2022-11-13T00:07:55.000Z,2.700000047683716
2022-11-13T00:08:10.000Z,2.700000047683716
2022-11-13T00:08:25.000Z,2.700000047683716
2022-11-13T00:08:40.000Z,2.700000047683716
2022-11-13T00:08:55.000Z,2.700000047683716
2022-11-13T00:09:10.000Z,2.700000047683716
2022-11-13T00:09:25.000Z,2.700000047683716
2022-11-13T00:09:40.000Z,2.799999952316284
2022-11-13T00:09:55.000Z,2.799999952316284
2022-11-13T00:10:10.000Z,2.799999952316284
2022-11-13T00:10:25.000Z,2.700000047683716
2022-11-13T00:10:40.000Z,2.799999952316284
2022-11-13T00:10:55.000Z,2.799999952316284
2022-11-13T00:11:10.000Z,2.799999952316284
2022-11-13T00:11:25.000Z,2.799999952316284
2022-11-13T00:11:40.000Z,2.799999952316284
2022-11-13T00:11:55.000Z,2.799999952316284
2022-11-13T00:12:10.000Z,2.799999952316284
2022-11-13T00:12:26.000Z,2.799999952316284
2022-11-13T00:12:41.000Z,2.799999952316284
2022-11-13T00:12:56.000Z,2.799999952316284
2022-11-13T00:13:11.000Z,2.799999952316284
2022-11-13T00:13:26.000Z,2.799999952316284
2022-11-13T00:13:41.000Z,2.799999952316284
2022-11-13T00:13:56.000Z,2.799999952316284
2022-11-13T00:14:11.000Z,2.799999952316284
2022-11-13T00:14:26.000Z,2.9000000953674316
2022-11-13T00:14:41.000Z,2.799999952316284
2022-11-13T00:14:56.000Z,2.799999952316284
2022-11-13T00:15:10.000Z,2.9000000953674316
2022-11-13T00:15:25.000Z,2.9000000953674316
2022-11-13T00:15:40.000Z,2.9000000953674316
2022-11-13T00:15:55.000Z,2.9000000953674316
2022-11-13T00:16:10.000Z,2.9000000953674316
2022-11-13T00:16:25.000Z,2.799999952316284
2022-11-13T00:16:40.000Z,2.799999952316284
2022-11-13T00:16:55.000Z,2.799999952316284
2022-11-13T00:17:10.000Z,2.799999952316284
2022-11-13T00:17:25.000Z,2.799999952316284
2022-11-13T00:17:40.000Z,2.799999952316284
2022-11-13T00:17:55.000Z,2.799999952316284
2022-11-13T00:18:10.000Z,2.799999952316284
2022-11-13T00:18:25.000Z,2.799999952316284
2022-11-13T00:18:40.000Z,2.799999952316284
2022-11-13T00:18:55.000Z,2.799999952316284
2022-11-13T00:19:10.000Z,2.799999952316284
2022-11-13T00:19:25.000Z,2.799999952316284
2022-11-13T00:19:41.000Z,2.799999952316284
2022-11-13T00:19:56.000Z,2.799999952316284
2022-11-13T00:20:11.000Z,2.799999952316284
2022-11-13T00:20:26.000Z,2.799999952316284
2022-11-13T00:20:41.000Z,2.799999952316284
2022-11-13T00:20:56.000Z,2.799999952316284
2022-11-13T00:21:11.000Z,2.799999952316284
2022-11-13T00:21:26.000Z,2.700000047683716
2022-11-13T00:21:41.000Z,2.700000047683716
2022-11-13T00:21:56.000Z,2.700000047683716
2022-11-13T00:22:11.000Z,2.700000047683716
2022-11-13T00:22:26.000Z,2.700000047683716
2022-11-13T00:22:40.000Z,2.700000047683716
2022-11-13T00:22:55.000Z,2.700000047683716
2022-11-13T00:23:10.000Z,2.700000047683716
2022-11-13T00:23:25.000Z,2.700000047683716
2022-11-13T00:23:40.000Z,2.700000047683716
2022-11-13T00:23:55.000Z,2.700000047683716
2022-11-13T00:24:10.000Z,2.5999999046325684
2022-11-13T00:24:25.000Z,2.700000047683716
2022-11-13T00:24:40.000Z,2.700000047683716
2022-11-13T00:24:55.000Z,2.5999999046325684
2022-11-13T00:25:10.000Z,2.700000047683716
2022-11-13T00:25:25.000Z,2.5999999046325684
2022-11-13T00:25:40.000Z,2.5999999046325684
2022-11-13T00:25:55.000Z,2.5999999046325684
2022-11-13T00:26:10.000Z,2.5999999046325684
2022-11-13T00:26:25.000Z,2.5999999046325684
2022-11-13T00:26:40.000Z,2.5999999046325684
2022-11-13T00:26:55.000Z,2.5999999046325684
2022-11-13T00:27:11.000Z,2.5999999046325684
2022-11-13T00:27:26.000Z,2.5999999046325684
2022-11-13T00:27:41.000Z,2.5999999046325684
2022-11-13T00:27:56.000Z,2.5999999046325684
2022-11-13T00:28:11.000Z,2.5999999046325684
2022-11-13T00:28:26.000Z,2.5
2022-11-13T00:28:41.000Z,2.5
2022-11-13T00:28:56.000Z,2.5
2022-11-13T00:29:11.000Z,2.5
2022-11-13T00:29:26.000Z,2.5
2022-11-13T00:29:41.000Z,2.5
2022-11-13T00:29:55.000Z,2.5
2022-11-13T00:30:10.000Z,2.5
2022-11-13T00:30:25.000Z,2.5
2022-11-13T00:30:40.000Z,2.5
2022-11-13T00:30:55.000Z,2.5
2022-11-13T00:31:10.000Z,2.5
2022-11-13T00:31:25.000Z,2.5
2022-11-13T00:31:40.000Z,2.5
2022-11-13T00:31:55.000Z,2.5
2022-11-13T00:32:10.000Z,2.5
2022-11-13T00:32:25.000Z,2.5
2022-11-13T00:32:40.000Z,2.5
2022-11-13T00:32:55.000Z,2.5
2022-11-13T00:33:10.000Z,2.5
2022-11-13T00:33:25.000Z,2.5
2022-11-13T00:33:40.000Z,2.5999999046325684
2022-11-13T00:33:55.000Z,2.5999999046325684
2022-11-13T00:34:10.000Z,2.5999999046325684
2022-11-13T00:34:26.000Z,2.5999999046325684
2022-11-13T00:34:41.000Z,2.5999999046325684
2022-11-13T00:34:56.000Z,2.5999999046325684
2022-11-13T00:35:11.000Z,2.5999999046325684
2022-11-13T00:35:26.000Z,2.5999999046325684
2022-11-13T00:35:41.000Z,2.5999999046325684
2022-11-13T00:35:56.000Z,2.5999999046325684
2022-11-13T00:36:11.000Z,2.5999999046325684
2022-11-13T00:36:26.000Z,2.5999999046325684
2022-11-13T00:36:41.000Z,2.5999999046325684
2022-11-13T00:36:56.000Z,2.5999999046325684
2022-11-13T00:37:10.000Z,2.5999999046325684
2022-11-13T00:37:25.000Z,2.5999999046325684
2022-11-13T00:37:40.000Z,2.5999999046325684
2022-11-13T00:37:55.000Z,2.5999999046325684
2022-11-13T00:38:10.000Z,2.5999999046325684
2022-11-13T00:38:25.000Z,2.5999999046325684
2022-11-13T00:38:40.000Z,2.5999999046325684
2022-11-13T00:38:55.000Z,2.5999999046325684
2022-11-13T00:39:10.000Z,2.5999999046325684
2022-11-13T00:39:25.000Z,2.5999999046325684
2022-11-13T00:39:40.000Z,2.5999999046325684
2022-11-13T00:39:55.000Z,2.5999999046325684
2022-11-13T00:40:10.000Z,2.5999999046325684
2022-11-13T00:40:25.000Z,2.5999999046325684
2022-11-13T00:40:40.000Z,2.5999999046325684
2022-11-13T00:40:55.000Z,2.5999999046325684
2022-11-13T00:41:10.000Z,2.5999999046325684
2022-11-13T00:41:25.000Z,2.5999999046325684
2022-11-13T00:41:40.000Z,2.5999999046325684
2022-11-13T00:41:56.000Z,2.5999999046325684
2022-11-13T00:42:11.000Z,2.5999999046325684
2022-11-13T00:42:26.000Z,2.5999999046325684
2022-11-13T00:42:41.000Z,2.5999999046325684
2022-11-13T00:42:56.000Z,2.5999999046325684
2022-11-13T00:43:11.000Z,2.5999999046325684
2022-11-13T00:43:26.000Z,2.5999999046325684
2022-11-13T00:43:41.000Z,2.5999999046325684
2022-11-13T00:43:56.000Z,2.5999999046325684
2022-11-13T00:44:11.000Z,2.5999999046325684
2022-11-13T00:44:26.000Z,2.5999999046325684
2022-11-13T00:44:40.000Z,2.5999999046325684
2022-11-13T00:44:55.000Z,2.5999999046325684
2022-11-13T00:45:10.000Z,2.5999999046325684
2022-11-13T00:45:25.000Z,2.5999999046325684
2022-11-13T00:45:40.000Z,2.5999999046325684
2022-11-13T00:45:55.000Z,2.5999999046325684
2022-11-13T00:46:10.000Z,2.5999999046325684
2022-11-13T00:46:25.000Z,2.5999999046325684
2022-11-13T00:46:40.000Z,2.5999999046325684
2022-11-13T00:46:55.000Z,2.5999999046325684
2022-11-13T00:47:10.000Z,2.5999999046325684
2022-11-13T00:47:25.000Z,2.5999999046325684
2022-11-13T00:47:40.000Z,2.5999999046325684
2022-11-13T00:47:55.000Z,2.5
2022-11-13T00:48:10.000Z,2.5999999046325684
2022-11-13T00:48:25.000Z,2.5999999046325684
2022-11-13T00:48:40.000Z,2.5999999046325684
2022-11-13T00:48:55.000Z,2.5999999046325684
2022-11-13T00:49:10.000Z,2.5999999046325684
2022-11-13T00:49:26.000Z,2.5
2022-11-13T00:49:41.000Z,2.5
2022-11-13T00:49:56.000Z,2.5
2022-11-13T00:50:11.000Z,2.5
2022-11-13T00:50:26.000Z,2.5
2022-11-13T00:50:41.000Z,2.5
2022-11-13T00:50:56.000Z,2.5
2022-11-13T00:51:11.000Z,2.5
2022-11-13T00:51:26.000Z,2.5
2022-11-13T00:51:41.000Z,2.4000000953674316
2022-11-13T00:51:56.000Z,2.5
2022-11-13T00:52:10.000Z,2.5
2022-11-13T00:52:25.000Z,2.5
2022-11-13T00:52:40.000Z,2.5
2022-11-13T00:52:55.000Z,2.5
2022-11-13T00:53:10.000Z,2.5
2022-11-13T00:53:25.000Z,2.4000000953674316
2022-11-13T00:53:40.000Z,2.4000000953674316
2022-11-13T00:53:55.000Z,2.4000000953674316
2022-11-13T00:54:10.000Z,2.4000000953674316
2022-11-13T00:54:25.000Z,2.5
2022-11-13T00:54:40.000Z,2.4000000953674316
2022-11-13T00:54:55.000Z,2.4000000953674316
2022-11-13T00:55:10.000Z,2.4000000953674316
2022-11-13T00:55:25.000Z,2.4000000953674316
2022-11-13T00:55:40.000Z,2.4000000953674316
2022-11-13T00:55:55.000Z,2.4000000953674316
2022-11-13T00:56:10.000Z,2.4000000953674316
2022-11-13T00:56:25.000Z,2.4000000953674316
2022-11-13T00:56:41.000Z,2.4000000953674316
2022-11-13T00:56:56.000Z,2.4000000953674316
2022-11-13T00:57:11.000Z,2.4000000953674316
2022-11-13T00:57:26.000Z,2.4000000953674316
2022-11-13T00:57:41.000Z,2.4000000953674316
2022-11-13T00:57:56.000Z,2.4000000953674316
2022-11-13T00:58:11.000Z,2.4000000953674316
2022-11-13T00:58:26.000Z,2.4000000953674316
2022-11-13T00:58:41.000Z,2.4000000953674316
2022-11-13T00:58:56.000Z,2.4000000953674316
2022-11-13T00:59:11.000Z,2.4000000953674316
2022-11-13T00:59:26.000Z,2.4000000953674316
2022-11-13T00:59:40.000Z,2.4000000953674316
2022-11-13T00:59:55.000Z,2.4000000953674316
2022-11-13T01:00:10.000Z,2.4000000953674316
2022-11-13T01:00:25.000Z,2.4000000953674316
2022-11-13T01:00:40.000Z,2.4000000953674316
2022-11-13T01:00:55.000Z,2.4000000953674316
2022-11-13T01:01:10.000Z,2.4000000953674316
2022-11-13T01:01:25.000Z,2.4000000953674316
2022-11-13T01:01:40.000Z,2.4000000953674316
2022-11-13T01:01:55.000Z,2.4000000953674316
2022-11-13T01:02:10.000Z,2.4000000953674316
2022-11-13T01:02:25.000Z,2.4000000953674316
2022-11-13T01:02:40.000Z,2.4000000953674316
2022-11-13T01:02:55.000Z,2.4000000953674316
2022-11-13T01:03:10.000Z,2.4000000953674316
2022-11-13T01:03:25.000Z,2.4000000953674316
2022-11-13T01:03:40.000Z,2.4000000953674316
2022-11-13T01:03:55.000Z,2.4000000953674316
2022-11-13T01:04:11.000Z,2.4000000953674316
2022-11-13T01:04:26.000Z,2.4000000953674316
2022-11-13T01:04:41.000Z,2.4000000953674316
2022-11-13T01:04:56.000Z,2.4000000953674316
2022-11-13T01:05:11.000Z,2.4000000953674316
2022-11-13T01:05:26.000Z,2.4000000953674316
2022-11-13T01:05:41.000Z,2.4000000953674316
2022-11-13T01:05:56.000Z,2.4000000953674316
2022-11-13T01:06:11.000Z,2.4000000953674316
2022-11-13T01:06:26.000Z,2.4000000953674316
2022-11-13T01:06:41.000Z,2.4000000953674316
2022-11-13T01:06:55.000Z,2.4000000953674316
2022-11-13T01:07:10.000Z,2.4000000953674316
2022-11-13T01:07:25.000Z,2.4000000953674316
2022-11-13T01:07:40.000Z,2.4000000953674316
2022-11-13T01:07:55.000Z,2.4000000953674316
2022-11-13T01:08:10.000Z,2.4000000953674316
2022-11-13T01:08:25.000Z,2.4000000953674316
2022-11-13T01:08:40.000Z,2.4000000953674316
2022-11-13T01:08:55.000Z,2.4000000953674316
2022-11-13T01:09:10.000Z,2.4000000953674316
2022-11-13T01:09:25.000Z,2.4000000953674316
2022-11-13T01:09:40.000Z,2.4000000953674316
2022-11-13T01:09:55.000Z,2.4000000953674316
2022-11-13T01:10:10.000Z,2.4000000953674316
2022-11-13T01:10:25.000Z,2.4000000953674316
2022-11-13T01:10:40.000Z,2.4000000953674316
2022-11-13T01:10:55.000Z,2.4000000953674316
2022-11-13T01:11:10.000Z,2.4000000953674316
2022-11-13T01:11:26.000Z,2.4000000953674316
2022-11-13T01:11:41.000Z,2.4000000953674316
2022-11-13T01:11:56.000Z,2.4000000953674316
2022-11-13T01:12:11.000Z,2.4000000953674316
2022-11-13T01:12:26.000Z,2.4000000953674316
2022-11-13T01:12:41.000Z,2.4000000953674316
2022-11-13T01:12:56.000Z,2.4000000953674316
2022-11-13T01:13:11.000Z,2.4000000953674316
2022-11-13T01:13:26.000Z,2.4000000953674316
2022-11-13T01:13:41.000Z,2.4000000953674316
2022-11-13T01:13:56.000Z,2.299999952316284
2022-11-13T01:14:11.000Z,2.299999952316284
2022-11-13T01:14:25.000Z,2.299999952316284
2022-11-13T01:14:40.000Z,2.299999952316284
2022-11-13T01:14:55.000Z,2.299999952316284
2022-11-13T01:15:10.000Z,2.200000047683716
2022-11-13T01:15:25.000Z,2.200000047683716
2022-11-13T01:15:40.000Z,2.200000047683716
2022-11-13T01:15:55.000Z,2.200000047683716
2022-11-13T01:16:10.000Z,2.200000047683716
2022-11-13T01:16:25.000Z,2.200000047683716
2022-11-13T01:16:40.000Z,2.200000047683716
2022-11-13T01:16:55.000Z,2.200000047683716
2022-11-13T01:17:10.000Z,2.200000047683716
2022-11-13T01:17:25.000Z,2.200000047683716
2022-11-13T01:17:40.000Z,2.200000047683716
2022-11-13T01:17:55.000Z,2.200000047683716
2022-11-13T01:18:10.000Z,2.200000047683716
2022-11-13T01:18:25.000Z,2.200000047683716
2022-11-13T01:18:40.000Z,2.200000047683716
2022-11-13T01:18:56.000Z,2.200000047683716
2022-11-13T01:19:11.000Z,2.0999999046325684
2022-11-13T01:19:26.000Z,2.0999999046325684
2022-11-13T01:19:41.000Z,2.0999999046325684
2022-11-13T01:19:56.000Z,2.0999999046325684
2022-11-13T01:20:11.000Z,2.0999999046325684
2022-11-13T01:20:26.000Z,2.0999999046325684
2022-11-13T01:20:41.000Z,2.0999999046325684
2022-11-13T01:20:56.000Z,2.0999999046325684
2022-11-13T01:21:11.000Z,2.0999999046325684
2022-11-13T01:21:26.000Z,2.0999999046325684
2022-11-13T01:21:41.000Z,2.0999999046325684
2022-11-13T01:21:55.000Z,2.0999999046325684
2022-11-13T01:22:10.000Z,2.0999999046325684
2022-11-13T01:22:25.000Z,2.0999999046325684
2022-11-13T01:22:40.000Z,2.0999999046325684
2022-11-13T01:22:55.000Z,2.0999999046325684
2022-11-13T01:23:10.000Z,2.0999999046325684
2022-11-13T01:23:25.000Z,2.0999999046325684
2022-11-13T01:23:40.000Z,2.0999999046325684
2022-11-13T01:23:55.000Z,2.0999999046325684
2022-11-13T01:24:10.000Z,2.0999999046325684
2022-11-13T01:24:25.000Z,2.200000047683716
2022-11-13T01:24:40.000Z,2.200000047683716
2022-11-13T01:24:55.000Z,2.200000047683716
2022-11-13T01:25:10.000Z,2.200000047683716
2022-11-13T01:25:25.000Z,2.200000047683716
2022-11-13T01:25:40.000Z,2.200000047683716
2022-11-13T01:25:55.000Z,2.200000047683716
2022-11-13T01:26:10.000Z,2.200000047683716
2022-11-13T01:26:26.000Z,2.200000047683716
2022-11-13T01:26:41.000Z,2.200000047683716
2022-11-13T01:26:56.000Z,2.200000047683716
2022-11-13T01:27:11.000Z,2.200000047683716
2022-11-13T01:27:26.000Z,2.200000047683716
2022-11-13T01:27:41.000Z,2.200000047683716
2022-11-13T01:27:56.000Z,2.200000047683716
2022-11-13T01:28:11.000Z,2.200000047683716
2022-11-13T01:28:26.000Z,2.200000047683716
2022-11-13T01:28:41.000Z,2.200000047683716
2022-11-13T01:28:56.000Z,2.200000047683716
2022-11-13T01:29:11.000Z,2.200000047683716
2022-11-13T01:29:25.000Z,2.200000047683716
2022-11-13T01:29:40.000Z,2.0999999046325684
2022-11-13T01:29:55.000Z,2.0999999046325684
2022-11-13T01:30:10.000Z,2.0999999046325684
2022-11-13T01:30:25.000Z,2.0999999046325684
2022-11-13T01:30:40.000Z,2.0999999046325684
2022-11-13T01:30:55.000Z,2.0999999046325684
2022-11-13T01:31:10.000Z,2.0999999046325684
2022-11-13T01:31:25.000Z,2.0999999046325684
2022-11-13T01:31:40.000Z,2.0999999046325684
2022-11-13T01:31:55.000Z,2.0999999046325684
2022-11-13T01:32:10.000Z,2.0
2022-11-13T01:32:25.000Z,2.0
2022-11-13T01:32:40.000Z,2.0
2022-11-13T01:32:55.000Z,2.0
2022-11-13T01:33:10.000Z,2.0
2022-11-13T01:33:25.000Z,2.0
2022-11-13T01:33:40.000Z,2.0
2022-11-13T01:33:56.000Z,2.0
2022-11-13T01:34:11.000Z,2.0
2022-11-13T01:34:26.000Z,2.0999999046325684
2022-11-13T01:34:41.000Z,2.0999999046325684
2022-11-13T01:34:56.000Z,2.0999999046325684
2022-11-13T01:35:11.000Z,2.0999999046325684
2022-11-13T01:35:26.000Z,2.0999999046325684
2022-11-13T01:35:41.000Z,2.0999999046325684
2022-11-13T01:35:56.000Z,2.0999999046325684
2022-11-13T01:36:11.000Z,2.0999999046325684
2022-11-13T01:36:26.000Z,2.0999999046325684
2022-11-13T01:36:41.000Z,2.0999999046325684
2022-11-13T01:36:55.000Z,2.0999999046325684
2022-11-13T01:37:10.000Z,2.0999999046325684
2022-11-13T01:37:25.000Z,2.0999999046325684
2022-11-13T01:37:40.000Z,2.200000047683716
2022-11-13T01:37:55.000Z,2.200000047683716
2022-11-13T01:38:10.000Z,2.200000047683716
2022-11-13T01:38:25.000Z,2.200000047683716
2022-11-13T01:38:40.000Z,2.200000047683716
2022-11-13T01:38:55.000Z,2.200000047683716
2022-11-13T01:39:10.000Z,2.200000047683716
2022-11-13T01:39:25.000Z,2.200000047683716
2022-11-13T01:39:40.000Z,2.200000047683716
2022-11-13T01:39:55.000Z,2.200000047683716
2022-11-13T01:40:10.000Z,2.200000047683716
2022-11-13T01:40:25.000Z,2.200000047683716
2022-11-13T01:40:40.000Z,2.200000047683716
2022-11-13T01:40:55.000Z,2.299999952316284
2022-11-13T01:41:10.000Z,2.200000047683716
2022-11-13T01:41:25.000Z,2.299999952316284
2022-11-13T01:41:41.000Z,2.200000047683716
2022-11-13T01:41:56.000Z,2.299999952316284
2022-11-13T01:42:11.000Z,2.299999952316284
2022-11-13T01:42:26.000Z,2.299999952316284
2022-11-13T01:42:41.000Z,2.299999952316284
2022-11-13T01:42:56.000Z,2.299999952316284
2022-11-13T01:43:11.000Z,2.299999952316284
2022-11-13T01:43:26.000Z,2.299999952316284
2022-11-13T01:43:41.000Z,2.299999952316284
2022-11-13T01:43:56.000Z,2.299999952316284
2022-11-13T01:44:11.000Z,2.200000047683716
2022-11-13T01:44:26.000Z,2.299999952316284
2022-11-13T01:44:40.000Z,2.299999952316284
2022-11-13T01:44:55.000Z,2.200000047683716
2022-11-13T01:45:10.000Z,2.200000047683716
2022-11-13T01:45:25.000Z,2.200000047683716
2022-11-13T01:45:40.000Z,2.200000047683716
2022-11-13T01:45:55.000Z,2.200000047683716
2022-11-13T01:46:10.000Z,2.200000047683716
2022-11-13T01:46:25.000Z,2.200000047683716
2022-11-13T01:46:40.000Z,2.0999999046325684
2022-11-13T01:46:55.000Z,2.0999999046325684
2022-11-13T01:47:10.000Z,2.0999999046325684
2022-11-13T01:47:25.000Z,2.0999999046325684
2022-11-13T01:47:40.000Z,2.0
2022-11-13T01:47:55.000Z,2.0
2022-11-13T01:48:10.000Z,2.0
2022-11-13T01:48:25.000Z,1.899999976158142
2022-11-13T01:48:40.000Z,1.899999976158142
2022-11-13T01:48:55.000Z,1.899999976158142
2022-11-13T01:49:11.000Z,1.899999976158142
2022-11-13T01:49:26.000Z,1.899999976158142
2022-11-13T01:49:41.000Z,1.899999976158142
2022-11-13T01:49:56.000Z,1.899999976158142
2022-11-13T01:50:11.000Z,1.899999976158142
2022-11-13T01:50:26.000Z,1.899999976158142
2022-11-13T01:50:41.000Z,1.899999976158142
2022-11-13T01:50:56.000Z,1.899999976158142
2022-11-13T01:51:11.000Z,1.899999976158142
2022-11-13T01:51:26.000Z,1.899999976158142
2022-11-13T01:51:41.000Z,1.899999976158142
2022-11-13T01:51:56.000Z,1.899999976158142
2022-11-13T01:52:11.000Z,1.899999976158142
2022-11-13T01:52:25.000Z,1.899999976158142
2022-11-13T01:52:40.000Z,1.899999976158142
2022-11-13T01:52:55.000Z,1.899999976158142
2022-11-13T01:53:10.000Z,1.899999976158142
2022-11-13T01:53:25.000Z,1.899999976158142
2022-11-13T01:53:40.000Z,1.899999976158142
2022-11-13T01:53:55.000Z,1.899999976158142
2022-11-13T01:54:10.000Z,1.899999976158142
2022-11-13T01:54:25.000Z,1.899999976158142
2022-11-13T01:54:40.000Z,1.899999976158142
2022-11-13T01:54:55.000Z,1.899999976158142
2022-11-13T01:55:10.000Z,1.899999976158142
2022-11-13T01:55:25.000Z,1.899999976158142
2022-11-13T01:55:40.000Z,1.899999976158142
2022-11-13T01:55:55.000Z,1.899999976158142
2022-11-13T01:56:10.000Z,1.899999976158142
2022-11-13T01:56:25.000Z,1.899999976158142
2022-11-13T01:56:41.000Z,2.0
2022-11-13T01:56:56.000Z,2.0
2022-11-13T01:57:11.000Z,2.0
2022-11-13T01:57:26.000Z,2.0
2022-11-13T01:57:41.000Z,2.0
2022-11-13T01:57:56.000Z,2.0
2022-11-13T01:58:11.000Z,2.0
2022-11-13T01:58:26.000Z,2.0
2022-11-13T01:58:41.000Z,2.0
2022-11-13T01:58:56.000Z,2.0
2022-11-13T01:59:11.000Z,2.0
2022-11-13T01:59:26.000Z,2.0
2022-11-13T01:59:40.000Z,2.0
2022-11-13T01:59:55.000Z,2.0
2022-11-13T02:00:10.000Z,2.0
2022-11-13T02:00:25.000Z,2.0999999046325684
2022-11-13T02:00:40.000Z,2.0999999046325684
2022-11-13T02:00:55.000Z,2.0999999046325684
2022-11-13T02:01:10.000Z,2.0999999046325684
2022-11-13T02:01:25.000Z,2.0999999046325684
2022-11-13T02:01:40.000Z,2.0999999046325684
2022-11-13T02:01:55.000Z,2.0999999046325684
2022-11-13T02:02:10.000Z,2.0999999046325684
2022-11-13T02:02:25.000Z,2.0999999046325684
2022-11-13T02:02:40.000Z,2.0999999046325684
2022-11-13T02:02:55.000Z,2.0999999046325684
2022-11-13T02:03:10.000Z,2.0999999046325684
2022-11-13T02:03:25.000Z,2.0999999046325684
2022-11-13T02:03:40.000Z,2.0999999046325684
2022-11-13T02:03:55.000Z,2.0999999046325684
2022-11-13T02:04:11.000Z,2.0999999046325684
2022-11-13T02:04:26.000Z,2.0999999046325684
2022-11-13T02:04:41.000Z,2.0999999046325684
2022-11-13T02:04:56.000Z,2.0999999046325684
2022-11-13T02:05:11.000Z,2.0999999046325684
2022-11-13T02:05:26.000Z,2.0999999046325684
2022-11-13T02:05:41.000Z,2.0999999046325684
2022-11-13T02:05:56.000Z,2.0999999046325684
2022-11-13T02:06:11.000Z,2.0999999046325684
2022-11-13T02:06:26.000Z,2.0999999046325684
2022-11-13T02:06:41.000Z,2.200000047683716
2022-11-13T02:06:56.000Z,2.200000047683716
2022-11-13T02:07:10.000Z,2.200000047683716
2022-11-13T02:07:25.000Z,2.200000047683716
2022-11-13T02:07:40.000Z,2.200000047683716
2022-11-13T02:07:55.000Z,2.200000047683716
2022-11-13T02:08:10.000Z,2.200000047683716
2022-11-13T02:08:25.000Z,2.200000047683716
2022-11-13T02:08:40.000Z,2.200000047683716
2022-11-13T02:08:55.000Z,2.200000047683716
2022-11-13T02:09:10.000Z,2.200000047683716
2022-11-13T02:09:25.000Z,2.200000047683716
2022-11-13T02:09:40.000Z,2.200000047683716
2022-11-13T02:09:55.000Z,2.200000047683716
2022-11-13T02:10:10.000Z,2.200000047683716
2022-11-13T02:10:25.000Z,2.200000047683716
2022-11-13T02:10:40.000Z,2.200000047683716
2022-11-13T02:10:55.000Z,2.200000047683716
2022-11-13T02:11:10.000Z,2.200000047683716
2022-11-13T02:11:26.000Z,2.200000047683716
2022-11-13T02:11:41.000Z,2.200000047683716
2022-11-13T02:11:56.000Z,2.200000047683716
2022-11-13T02:12:11.000Z,2.200000047683716
2022-11-13T02:12:26.000Z,2.200000047683716
2022-11-13T02:12:41.000Z,2.200000047683716
2022-11-13T02:12:56.000Z,2.200000047683716
2022-11-13T02:13:11.000Z,2.200000047683716
2022-11-13T02:13:26.000Z,2.200000047683716
2022-11-13T02:13:41.000Z,2.200000047683716
2022-11-13T02:13:56.000Z,2.200000047683716
2022-11-13T02:14:10.000Z,2.200000047683716
2022-11-13T02:14:25.000Z,2.200000047683716
2022-11-13T02:14:40.000Z,2.200000047683716
2022-11-13T02:14:55.000Z,2.0999999046325684
2022-11-13T02:15:10.000Z,2.0999999046325684
2022-11-13T02:15:25.000Z,2.0999999046325684
2022-11-13T02:15:40.000Z,2.0
2022-11-13T02:15:55.000Z,2.0
2022-11-13T02:16:10.000Z,2.0
2022-11-13T02:16:25.000Z,2.0
2022-11-13T02:16:40.000Z,2.0
2022-11-13T02:16:55.000Z,2.0
2022-11-13T02:17:10.000Z,2.0
2022-11-13T02:17:25.000Z,1.899999976158142
2022-11-13T02:17:40.000Z,1.899999976158142
2022-11-13T02:17:55.000Z,1.899999976158142
2022-11-13T02:18:10.000Z,1.899999976158142
2022-11-13T02:18:26.000Z,1.7999999523162842
2022-11-13T02:18:41.000Z,1.7999999523162842
2022-11-13T02:18:56.000Z,1.7999999523162842
2022-11-13T02:19:11.000Z,1.899999976158142
2022-11-13T02:19:26.000Z,1.899999976158142
2022-11-13T02:19:41.000Z,1.899999976158142
2022-11-13T02:19:56.000Z,1.899999976158142
2022-11-13T02:20:11.000Z,1.899999976158142
2022-11-13T02:20:26.000Z,1.899999976158142
2022-11-13T02:20:41.000Z,1.899999976158142
2022-11-13T02:20:56.000Z,1.899999976158142
2022-11-13T02:21:11.000Z,1.899999976158142
2022-11-13T02:21:25.000Z,2.0
2022-11-13T02:21:40.000Z,2.0
2022-11-13T02:21:55.000Z,2.0
2022-11-13T02:22:10.000Z,2.0
2022-11-13T02:22:25.000Z,2.0
2022-11-13T02:22:40.000Z,2.0
2022-11-13T02:22:55.000Z,2.0
2022-11-13T02:23:10.000Z,2.0
2022-11-13T02:23:25.000Z,2.0
2022-11-13T02:23:40.000Z,2.0
2022-11-13T02:23:55.000Z,2.0999999046325684
2022-11-13T02:24:10.000Z,2.0
2022-11-13T02:24:25.000Z,2.0
2022-11-13T02:24:40.000Z,2.0